createdAt,value
2023-02-27T00:00:42.996Z,102792.28
2023-02-27T00:05:41.380Z,102788.69
2023-02-27T00:10:38.021Z,102787.38
2023-02-27T00:15:34.549Z,102791.84
2023-02-27T00:20:32.322Z,102792.59
2023-02-27T00:25:28.754Z,102798.28
2023-02-27T00:30:26.461Z,102802.00
2023-02-27T00:35:22.936Z,102804.41
2023-02-27T00:40:19.638Z,102797.63
2023-02-27T00:45:16.117Z,102802.19
2023-02-27T00:50:14.391Z,102807.16
2023-02-27T00:55:11.161Z,102801.69
2023-02-27T01:00:09.186Z,102808.25
2023-02-27T01:05:06.459Z,102803.59
2023-02-27T01:10:04.053Z,102805.66
2023-02-27T01:15:00.489Z,102794.94
2023-02-27T01:19:56.943Z,102792.06
2023-02-27T01:24:53.325Z,102796.97
2023-02-27T01:29:49.779Z,102797.69
2023-02-27T01:34:46.171Z,102787.88
2023-02-27T01:39:42.690Z,102788.06
2023-02-27T01:45:11.032Z,102783.72
2023-02-27T01:50:08.513Z,102794.22
2023-02-27T01:55:08.568Z,102791.00
2023-02-27T02:00:06.130Z,102784.00
2023-02-27T02:10:16.128Z,102801.22
2023-02-27T02:15:12.785Z,102802.34
2023-02-27T02:20:26.910Z,102798.19
2023-02-27T02:25:47.430Z,102806.28
2023-02-27T02:31:19.504Z,102801.28
2023-02-27T02:36:58.798Z,102807.97
2023-02-27T02:42:24.151Z,102807.97
2023-02-27T02:47:44.169Z,102811.25
2023-02-27T02:52:54.727Z,102809.25
2023-02-27T02:58:06.688Z,102812.59
2023-02-27T03:03:19.097Z,102807.84
2023-02-27T03:08:20.918Z,102804.50
2023-02-27T03:13:41.931Z,102815.53
2023-02-27T03:18:45.508Z,102807.19
2023-02-27T03:23:47.435Z,102805.19
2023-02-27T03:28:53.906Z,102812.81
2023-02-27T03:33:55.756Z,102820.19
2023-02-27T03:39:02.770Z,102820.91
2023-02-27T03:44:09.214Z,102820.56
2023-02-27T03:49:06.539Z,102811.75
2023-02-27T03:54:13.677Z,102823.41
2023-02-27T03:59:10.270Z,102825.44
2023-02-27T04:04:15.620Z,102842.34
2023-02-27T04:09:27.062Z,102846.41
2023-02-27T04:14:47.402Z,102846.03
2023-02-27T04:20:31.880Z,102855.81
2023-02-27T04:25:52.827Z,102863.88
2023-02-27T04:31:10.127Z,102870.09
2023-02-27T04:36:27.047Z,102878.00
2023-02-27T04:41:29.177Z,102876.84
2023-02-27T04:46:27.836Z,102887.75
2023-02-27T04:51:47.472Z,102876.69
2023-02-27T04:56:52.582Z,102878.53
2023-02-27T05:02:02.927Z,102883.34
2023-02-27T05:07:01.844Z,102891.56
2023-02-27T05:12:13.884Z,102892.59
2023-02-27T05:17:21.947Z,102900.41
2023-02-27T05:22:32.680Z,102909.47
2023-02-27T05:27:56.772Z,102915.66
2023-02-27T05:33:06.803Z,102905.63
2023-02-27T05:38:25.326Z,102906.81
2023-02-27T05:43:27.580Z,102906.50
2023-02-27T05:48:30.161Z,102911.00
2023-02-27T05:53:33.293Z,102913.50
2023-02-27T05:58:41.604Z,102908.84
2023-02-27T06:03:40.154Z,102910.16
2023-02-27T06:08:36.587Z,102911.50
2023-02-27T06:13:33.015Z,102926.53
2023-02-27T06:18:29.456Z,102930.06
2023-02-27T06:23:25.829Z,102938.63
2023-02-27T06:28:22.239Z,102949.00
2023-02-27T06:33:18.667Z,102957.03
2023-02-27T06:38:15.226Z,102963.88
2023-02-27T06:43:11.655Z,102969.06
2023-02-27T06:48:08.570Z,102968.41
2023-02-27T06:53:05.125Z,102977.41
2023-02-27T06:58:01.677Z,102973.38
2023-02-27T07:02:58.091Z,102984.09
2023-02-27T07:07:54.470Z,102986.25
2023-02-27T07:12:50.947Z,102992.78
2023-02-27T07:17:47.418Z,102993.63
2023-02-27T07:22:43.804Z,103001.25
2023-02-27T07:27:40.240Z,103002.38
2023-02-27T07:32:36.691Z,102997.44
2023-02-27T07:37:33.117Z,102993.69
2023-02-27T07:42:30.003Z,102995.44
2023-02-27T07:47:26.629Z,103006.38
2023-02-27T07:52:24.185Z,103001.91
2023-02-27T07:57:20.593Z,103003.97
2023-02-27T08:02:17.002Z,103010.41
2023-02-27T08:07:13.442Z,103008.75
2023-02-27T08:12:09.830Z,103010.06
2023-02-27T08:17:06.260Z,102999.53
2023-02-27T08:22:03.504Z,103011.28
2023-02-27T08:26:59.923Z,103005.63
2023-02-27T08:31:56.400Z,103015.00
2023-02-27T08:36:53.608Z,103021.81
2023-02-27T08:41:52.402Z,103015.81
2023-02-27T08:46:48.847Z,103029.63
2023-02-27T08:51:45.269Z,103035.13
2023-02-27T08:56:41.677Z,103031.69
2023-02-27T09:01:38.093Z,103037.66
2023-02-27T09:06:35.968Z,103037.00
2023-02-27T09:11:32.862Z,103023.94
2023-02-27T09:16:29.775Z,103012.47
2023-02-27T09:21:26.510Z,103014.16
2023-02-27T09:26:35.730Z,103007.41
2023-02-27T09:31:37.299Z,103010.16
2023-02-27T09:36:34.202Z,103011.28
2023-02-27T09:41:53.164Z,103002.81
2023-02-27T09:46:49.999Z,102991.97
2023-02-27T09:51:46.952Z,102993.06
2023-02-27T09:56:58.621Z,102972.44
2023-02-27T10:02:12.758Z,102968.84
2023-02-27T10:07:23.316Z,102966.41
2023-02-27T10:12:32.254Z,102964.16
2023-02-27T10:17:32.098Z,102963.78
2023-02-27T10:22:33.539Z,102969.72
2023-02-27T10:27:31.224Z,102968.16
2023-02-27T10:32:32.625Z,102977.38
2023-02-27T10:37:30.284Z,102975.13
2023-02-27T10:42:31.317Z,102987.91
2023-02-27T10:47:28.092Z,102992.94
2023-02-27T10:52:27.438Z,102999.28
2023-02-27T10:57:42.083Z,102999.13
2023-02-27T11:02:41.958Z,103001.00
2023-02-27T11:07:39.090Z,103001.09
2023-02-27T11:12:35.528Z,103003.03
2023-02-27T11:17:34.396Z,103004.13
2023-02-27T11:22:32.268Z,103001.34
2023-02-27T11:27:30.399Z,103011.47
2023-02-27T11:32:36.627Z,103009.19
2023-02-27T11:37:36.994Z,103008.84
2023-02-27T11:42:36.005Z,103007.88
2023-02-27T11:47:36.013Z,103014.75
2023-02-27T11:52:44.336Z,103008.75
2023-02-27T11:57:43.706Z,103011.00
2023-02-27T12:03:12.305Z,103007.53
2023-02-27T12:08:21.887Z,103000.97
2023-02-27T12:13:23.038Z,102996.44
2023-02-27T12:18:35.611Z,102989.66
2023-02-27T12:23:40.297Z,102994.31
2023-02-27T12:28:45.695Z,102989.78
2023-02-27T12:33:51.479Z,102984.53
2023-02-27T12:38:47.852Z,102985.34
2023-02-27T12:44:10.422Z,102972.69
2023-02-27T12:49:22.019Z,102981.84
2023-02-27T12:54:38.950Z,102964.53
2023-02-27T12:59:57.002Z,102964.03
2023-02-27T13:05:47.883Z,102969.03
2023-02-27T13:11:03.193Z,102968.47
2023-02-27T13:16:36.529Z,102961.78
2023-02-27T13:21:51.377Z,102965.00
2023-02-27T13:27:06.825Z,102964.69
2023-02-27T13:32:36.524Z,102960.16
2023-02-27T13:38:02.154Z,102950.94
2023-02-27T13:43:05.939Z,102948.78
2023-02-27T13:48:02.321Z,102946.06
2023-02-27T13:53:09.762Z,102946.59
2023-02-27T13:58:06.532Z,102949.38
2023-02-27T14:03:07.364Z,102945.81
2023-02-27T14:08:06.793Z,102952.59
2023-02-27T14:13:04.345Z,102958.88
2023-02-27T14:18:15.651Z,102969.97
2023-02-27T14:23:18.496Z,102972.63
2023-02-27T14:28:20.929Z,102973.38
2023-02-27T14:33:30.012Z,102972.44
2023-02-27T14:38:38.206Z,102987.94
2023-02-27T14:43:39.779Z,102994.78
2023-02-27T14:48:37.832Z,102995.50
2023-02-27T14:53:34.728Z,102991.03
2023-02-27T14:58:31.149Z,102989.69
2023-02-27T15:03:34.503Z,102989.16
2023-02-27T15:08:36.623Z,102997.34
2023-02-27T15:13:36.502Z,103000.44
2023-02-27T15:18:32.865Z,102997.22
2023-02-27T15:23:29.402Z,103002.84
2023-02-27T15:28:37.123Z,103002.91
2023-02-27T15:33:33.965Z,102996.53
2023-02-27T15:38:35.881Z,103003.31
2023-02-27T15:43:32.714Z,103006.47
2023-02-27T15:48:29.960Z,103010.88
2023-02-27T15:53:28.877Z,103014.03
2023-02-27T15:58:31.062Z,103006.84
2023-02-27T16:03:35.504Z,103001.81
2023-02-27T16:08:31.959Z,103004.00
2023-02-27T16:13:31.552Z,103010.19
2023-02-27T16:18:45.689Z,103009.16
2023-02-27T16:23:43.028Z,103012.91
2023-02-27T16:28:51.047Z,103014.56
2023-02-27T16:33:47.564Z,103011.59
2023-02-27T16:38:44.803Z,103007.41
2023-02-27T16:43:41.810Z,103007.09
2023-02-27T16:48:38.229Z,103006.03
2023-02-27T16:53:34.607Z,103015.34
2023-02-27T16:58:31.033Z,103012.59
2023-02-27T17:03:28.008Z,102998.91
2023-02-27T17:08:24.395Z,103001.81
2023-02-27T17:13:20.774Z,102995.44
2023-02-27T17:18:17.153Z,102991.06
2023-02-27T17:23:14.503Z,102986.22
2023-02-27T17:28:11.682Z,103010.47
2023-02-27T17:33:09.195Z,103012.75
2023-02-27T17:38:07.420Z,103005.66
2023-02-27T17:43:04.192Z,103005.28
2023-02-27T17:48:00.610Z,103004.88
2023-02-27T17:52:56.976Z,103001.13
2023-02-27T17:57:53.396Z,103004.47
2023-02-27T18:02:51.025Z,102994.50
2023-02-27T18:07:48.022Z,103004.72
2023-02-27T18:12:44.830Z,102998.25
2023-02-27T18:17:43.410Z,103013.50
2023-02-27T18:22:39.779Z,103023.44
2023-02-27T18:27:36.337Z,103023.78
2023-02-27T18:32:32.717Z,103034.16
2023-02-27T18:37:29.082Z,103035.94
2023-02-27T18:42:25.601Z,103032.50
2023-02-27T18:47:21.978Z,103030.78
2023-02-27T18:52:18.539Z,103046.69
2023-02-27T18:57:15.343Z,103053.38
2023-02-27T19:02:14.663Z,103047.53
2023-02-27T19:07:11.615Z,103053.75
2023-02-27T19:12:10.595Z,103044.63
2023-02-27T19:17:07.283Z,103048.44
2023-02-27T19:22:03.745Z,103052.13
2023-02-27T19:27:00.197Z,103047.16
2023-02-27T19:31:56.599Z,103053.84
2023-02-27T19:36:53.055Z,103048.03
2023-02-27T19:41:49.479Z,103043.47
2023-02-27T19:46:51.063Z,103043.47
2023-02-27T19:51:47.525Z,103047.28
2023-02-27T19:56:43.902Z,103057.28
2023-02-27T20:01:41.399Z,103058.09
2023-02-27T20:06:41.552Z,103057.25
2023-02-27T20:11:38.015Z,103051.38
2023-02-27T20:16:36.638Z,103051.88
2023-02-27T20:21:34.194Z,103062.28
2023-02-27T20:26:37.032Z,103065.00
2023-02-27T20:31:35.658Z,103078.31
2023-02-27T20:36:35.648Z,103069.41
2023-02-27T20:41:34.478Z,103074.41
2023-02-27T20:46:31.424Z,103070.66
2023-02-27T20:51:36.648Z,103075.91
2023-02-27T20:56:35.206Z,103067.78
2023-02-27T21:01:32.210Z,103076.50
2023-02-27T21:06:30.375Z,103078.22
2023-02-27T21:11:29.685Z,103075.28
2023-02-27T21:16:26.373Z,103070.72
2023-02-27T21:21:25.592Z,103062.44
2023-02-27T21:26:26.231Z,103061.00
2023-02-27T21:31:24.992Z,103079.53
2023-02-27T21:36:29.507Z,103072.13
2023-02-27T21:41:26.787Z,103070.00
2023-02-27T21:46:23.310Z,103068.13
2023-02-27T21:51:36.816Z,103067.91
2023-02-27T21:56:35.518Z,103076.66
2023-02-27T22:01:33.447Z,103077.94
2023-02-27T22:06:32.160Z,103076.47
2023-02-27T22:11:29.793Z,103063.75
2023-02-27T22:16:27.630Z,103059.16
2023-02-27T22:21:25.977Z,103066.88
2023-02-27T22:26:25.759Z,103066.63
2023-02-27T22:31:24.618Z,103069.56
2023-02-27T22:36:25.303Z,103057.06
2023-02-27T22:41:29.156Z,103067.50
2023-02-27T22:46:28.587Z,103073.72
2023-02-27T22:51:27.704Z,103077.91
2023-02-27T22:56:24.789Z,103078.97
2023-02-27T23:01:24.041Z,103081.03
2023-02-27T23:06:28.874Z,103083.31
2023-02-27T23:11:25.373Z,103086.63
2023-02-27T23:16:21.849Z,103094.13
2023-02-27T23:21:20.650Z,103087.06
2023-02-27T23:26:17.060Z,103089.16
2023-02-27T23:31:15.210Z,103097.03
2023-02-27T23:36:11.877Z,103092.91
2023-02-27T23:41:09.885Z,103098.75
2023-02-27T23:46:08.745Z,103095.66
2023-02-27T23:51:06.341Z,103101.28
2023-02-27T23:56:12.707Z,103097.56
